createdAt,value
2023-01-15T00:02:09.564Z,11.18
2023-01-15T00:04:36.510Z,11.20
2023-01-15T00:07:04.653Z,11.16
2023-01-15T00:09:31.600Z,11.14
2023-01-15T00:11:58.331Z,11.14
2023-01-15T00:14:25.144Z,11.15
2023-01-15T00:16:52.532Z,11.20
2023-01-15T00:19:19.482Z,11.13
2023-01-15T00:21:46.761Z,11.06
2023-01-15T00:24:32.389Z,11.07
2023-01-15T00:27:17.915Z,11.03
2023-01-15T00:29:46.999Z,10.94
2023-01-15T00:32:13.929Z,10.82
2023-01-15T00:34:40.774Z,10.79
2023-01-15T00:37:07.558Z,10.80
2023-01-15T00:39:35.648Z,10.86
2023-01-15T00:42:02.827Z,10.84
2023-01-15T00:44:33.654Z,10.84
2023-01-15T00:47:00.650Z,10.79
2023-01-15T00:49:27.523Z,10.74
2023-01-15T00:51:54.450Z,10.67
2023-01-15T00:54:21.441Z,10.58
2023-01-15T00:56:48.287Z,10.69
2023-01-15T00:59:15.245Z,10.77
2023-01-15T01:01:42.838Z,10.74
2023-01-15T01:04:09.665Z,10.76
2023-01-15T01:06:36.613Z,10.75
2023-01-15T01:09:05.223Z,10.76
2023-01-15T01:11:34.530Z,10.78
2023-01-15T01:14:02.831Z,10.80
2023-01-15T01:16:32.368Z,10.81
2023-01-15T01:19:01.836Z,10.82
2023-01-15T01:21:28.674Z,10.84
2023-01-15T01:23:57.868Z,10.85
2023-01-15T01:26:24.805Z,10.84
2023-01-15T01:28:53.069Z,10.71
2023-01-15T01:31:22.258Z,10.67
2023-01-15T01:33:53.771Z,10.65
2023-01-15T01:36:21.711Z,10.64
2023-01-15T01:38:51.859Z,10.64
2023-01-15T01:41:19.658Z,10.63
2023-01-15T01:43:53.882Z,10.68
2023-01-15T01:46:20.807Z,10.70
2023-01-15T01:48:50.719Z,10.74
2023-01-15T01:51:19.974Z,10.74
2023-01-15T01:53:47.140Z,10.76
2023-01-15T01:56:17.736Z,10.76
2023-01-15T01:58:48.471Z,10.78
2023-01-15T02:01:16.207Z,10.76
2023-01-15T02:03:43.556Z,10.69
2023-01-15T02:06:12.927Z,10.70
2023-01-15T02:08:40.167Z,10.71
2023-01-15T02:11:12.769Z,10.74
2023-01-15T02:14:14.109Z,10.77
2023-01-15T02:16:56.941Z,10.82
2023-01-15T02:19:27.268Z,10.89
2023-01-15T02:22:26.468Z,10.95
2023-01-15T02:25:15.083Z,10.95
2023-01-15T02:27:52.183Z,11.01
2023-01-15T02:30:29.998Z,11.02
2023-01-15T02:33:05.049Z,10.93
2023-01-15T02:35:46.818Z,10.77
2023-01-15T02:38:19.347Z,10.73
2023-01-15T02:40:53.026Z,10.72
2023-01-15T02:43:23.507Z,10.62
2023-01-15T02:45:54.909Z,10.58
2023-01-15T02:48:26.845Z,10.61
2023-01-15T02:51:04.283Z,10.69
2023-01-15T02:53:31.714Z,10.70
2023-01-15T02:56:06.772Z,10.73
2023-01-15T02:58:43.923Z,10.76
2023-01-15T03:01:16.661Z,10.76
2023-01-15T03:03:59.826Z,10.80
2023-01-15T03:06:50.407Z,10.76
2023-01-15T03:09:19.043Z,10.81
2023-01-15T03:12:05.438Z,10.88
2023-01-15T03:15:42.018Z,10.73
2023-01-15T03:18:13.424Z,10.59
2023-01-15T03:20:50.559Z,10.56
2023-01-15T03:23:19.263Z,10.56
2023-01-15T03:25:49.519Z,10.63
2023-01-15T03:28:23.367Z,10.63
2023-01-15T03:30:50.587Z,10.69
2023-01-15T03:33:19.617Z,10.67
2023-01-15T03:35:58.375Z,10.69
2023-01-15T03:38:47.310Z,10.64
2023-01-15T03:41:37.843Z,10.67
2023-01-15T03:44:34.608Z,10.73
2023-01-15T03:47:14.644Z,10.85
2023-01-15T03:49:56.770Z,10.86
2023-01-15T03:52:46.501Z,10.83
2023-01-15T03:55:17.943Z,10.73
2023-01-15T03:57:59.255Z,10.73
2023-01-15T04:00:38.517Z,10.74
2023-01-15T04:03:08.840Z,10.78
2023-01-15T04:05:37.760Z,10.78
2023-01-15T04:08:07.334Z,10.82
2023-01-15T04:10:35.499Z,10.83
2023-01-15T04:13:04.429Z,10.78
2023-01-15T04:15:31.891Z,10.77
2023-01-15T04:17:58.727Z,10.83
2023-01-15T04:20:28.821Z,10.82
2023-01-15T04:22:55.683Z,10.78
2023-01-15T04:25:22.425Z,10.77
2023-01-15T04:27:50.556Z,10.76
2023-01-15T04:30:17.755Z,10.74
2023-01-15T04:32:44.548Z,10.74
2023-01-15T04:35:11.263Z,10.73
2023-01-15T04:37:38.082Z,10.71
2023-01-15T04:40:05.606Z,10.72
2023-01-15T04:42:50.946Z,10.72
2023-01-15T04:45:17.952Z,10.78
2023-01-15T04:47:44.765Z,10.69
2023-01-15T04:50:12.615Z,10.83
2023-01-15T04:52:39.380Z,10.75
2023-01-15T04:55:06.347Z,10.72
2023-01-15T04:57:33.513Z,10.75
2023-01-15T05:00:00.335Z,10.71
2023-01-15T05:02:27.088Z,10.79
2023-01-15T05:04:53.922Z,10.81
2023-01-15T05:07:20.731Z,10.81
2023-01-15T05:09:51.597Z,10.81
2023-01-15T05:12:18.447Z,10.81
2023-01-15T05:14:45.190Z,10.81
2023-01-15T05:17:11.957Z,10.75
2023-01-15T05:19:38.926Z,10.77
2023-01-15T05:22:05.944Z,10.77
2023-01-15T05:24:32.684Z,10.61
2023-01-15T05:26:59.580Z,10.47
2023-01-15T05:29:26.328Z,10.50
2023-01-15T05:31:53.098Z,10.49
2023-01-15T05:34:19.842Z,10.55
2023-01-15T05:36:46.641Z,10.61
2023-01-15T05:39:13.395Z,10.59
2023-01-15T05:41:49.310Z,10.55
2023-01-15T05:44:25.230Z,10.48
2023-01-15T05:46:55.119Z,10.48
2023-01-15T05:49:25.214Z,10.52
2023-01-15T05:51:53.642Z,10.58
2023-01-15T05:54:24.056Z,10.57
2023-01-15T05:56:51.731Z,10.64
2023-01-15T05:59:20.961Z,10.81
2023-01-15T06:01:48.429Z,10.75
2023-01-15T06:04:15.799Z,10.59
2023-01-15T06:06:43.295Z,10.60
2023-01-15T06:09:10.524Z,10.57
2023-01-15T06:11:37.369Z,10.57
2023-01-15T06:14:04.126Z,10.59
2023-01-15T06:16:31.632Z,10.60
2023-01-15T06:19:06.279Z,10.71
2023-01-15T06:21:34.834Z,10.73
2023-01-15T06:24:02.371Z,10.69
2023-01-15T06:26:29.124Z,10.67
2023-01-15T06:28:55.900Z,10.64
2023-01-15T06:31:23.903Z,10.59
2023-01-15T06:33:50.974Z,10.65
2023-01-15T06:36:21.982Z,10.78
2023-01-15T06:38:49.527Z,10.67
2023-01-15T06:41:37.882Z,10.63
2023-01-15T06:44:24.194Z,10.60
2023-01-15T06:47:10.823Z,10.62
2023-01-15T06:49:38.138Z,10.63
2023-01-15T06:52:05.692Z,10.68
2023-01-15T06:54:33.172Z,10.71
2023-01-15T06:56:59.900Z,10.78
2023-01-15T06:59:26.769Z,10.86
2023-01-15T07:01:53.711Z,10.90
2023-01-15T07:04:20.611Z,10.88
2023-01-15T07:06:47.305Z,10.81
2023-01-15T07:09:14.075Z,10.80
2023-01-15T07:11:49.649Z,10.87
2023-01-15T07:14:22.487Z,10.84
2023-01-15T07:16:49.952Z,10.83
2023-01-15T07:19:17.470Z,10.82
2023-01-15T07:21:44.645Z,10.81
2023-01-15T07:24:12.156Z,10.84
2023-01-15T07:26:39.580Z,10.85
2023-01-15T07:29:06.347Z,10.86
2023-01-15T07:31:33.294Z,10.92
2023-01-15T07:34:00.368Z,10.95
2023-01-15T07:36:27.279Z,10.98
2023-01-15T07:38:54.192Z,10.98
2023-01-15T07:41:39.956Z,11.03
2023-01-15T07:44:30.205Z,11.14
2023-01-15T07:47:15.473Z,11.19
2023-01-15T07:49:45.690Z,11.17
2023-01-15T07:52:14.581Z,11.17
2023-01-15T07:54:41.511Z,11.23
2023-01-15T07:57:08.953Z,11.26
2023-01-15T07:59:35.728Z,11.28
2023-01-15T08:02:02.640Z,11.16
2023-01-15T08:04:29.441Z,10.99
2023-01-15T08:06:56.281Z,10.96
2023-01-15T08:09:23.005Z,10.89
2023-01-15T08:12:08.496Z,10.93
2023-01-15T08:14:54.013Z,10.99
2023-01-15T08:17:20.934Z,11.07
2023-01-15T08:19:47.646Z,11.05
2023-01-15T08:22:14.457Z,11.01
2023-01-15T08:24:41.191Z,11.05
2023-01-15T08:27:08.090Z,11.07
2023-01-15T08:29:34.874Z,11.13
2023-01-15T08:32:03.332Z,11.18
2023-01-15T08:34:30.203Z,11.23
2023-01-15T08:37:00.165Z,11.22
2023-01-15T08:39:27.987Z,11.21
2023-01-15T08:41:57.849Z,11.20
2023-01-15T08:44:24.917Z,11.20
2023-01-15T08:46:52.681Z,11.20
2023-01-15T08:49:20.641Z,11.21
2023-01-15T08:51:50.081Z,11.20
2023-01-15T08:54:17.529Z,11.22
2023-01-15T08:56:45.117Z,11.23
2023-01-15T08:59:11.979Z,11.22
2023-01-15T09:01:39.317Z,11.26
2023-01-15T09:04:06.899Z,11.29
2023-01-15T09:06:33.957Z,11.32
2023-01-15T09:09:00.782Z,11.32
2023-01-15T09:11:28.791Z,11.31
2023-01-15T09:13:55.635Z,11.32
2023-01-15T09:16:22.495Z,11.32
2023-01-15T09:18:49.483Z,11.36
2023-01-15T09:21:16.544Z,11.35
2023-01-15T09:23:43.495Z,11.35
2023-01-15T09:26:25.559Z,11.33
2023-01-15T09:28:52.399Z,11.35
2023-01-15T09:31:19.142Z,11.35
2023-01-15T09:33:48.915Z,11.34
2023-01-15T09:36:30.933Z,11.42
2023-01-15T09:38:59.220Z,11.39
2023-01-15T09:41:49.561Z,11.37
2023-01-15T09:44:33.986Z,11.35
2023-01-15T09:47:03.397Z,11.36
2023-01-15T09:50:15.160Z,11.32
2023-01-15T09:53:20.511Z,11.35
2023-01-15T09:55:52.872Z,11.36
2023-01-15T09:58:24.071Z,11.36
2023-01-15T10:00:52.029Z,11.33
2023-01-15T10:03:42.967Z,11.34
2023-01-15T10:06:27.820Z,11.33
2023-01-15T10:09:11.751Z,11.33
2023-01-15T10:12:02.991Z,11.32
2023-01-15T10:15:06.776Z,11.35
2023-01-15T10:17:44.029Z,11.41
2023-01-15T10:20:23.505Z,11.43
2023-01-15T10:23:04.929Z,11.49
2023-01-15T10:25:47.671Z,11.43
2023-01-15T10:28:22.570Z,11.40
2023-01-15T10:31:04.412Z,11.38
2023-01-15T10:33:37.045Z,11.36
2023-01-15T10:36:18.095Z,11.33
2023-01-15T10:38:56.960Z,11.34
2023-01-15T10:41:37.099Z,11.35
2023-01-15T10:44:13.346Z,11.29
2023-01-15T10:46:41.115Z,11.28
2023-01-15T10:49:16.153Z,11.31
2023-01-15T10:51:57.933Z,11.30
2023-01-15T10:54:40.501Z,11.31
2023-01-15T10:57:12.606Z,11.31
2023-01-15T10:59:47.751Z,11.33
2023-01-15T11:02:25.644Z,11.34
2023-01-15T11:04:54.419Z,11.36
2023-01-15T11:08:03.268Z,11.36
2023-01-15T11:10:31.752Z,11.34
2023-01-15T11:13:38.295Z,11.35
2023-01-15T11:16:24.797Z,11.34
2023-01-15T11:19:10.475Z,11.35
2023-01-15T11:21:41.929Z,11.37
2023-01-15T11:24:16.343Z,11.29
2023-01-15T11:26:50.771Z,11.27
2023-01-15T11:29:33.961Z,11.25
2023-01-15T11:32:00.821Z,11.28
2023-01-15T11:34:27.766Z,11.30
2023-01-15T11:37:07.301Z,11.31
2023-01-15T11:39:34.215Z,11.33
2023-01-15T11:42:34.325Z,11.43
2023-01-15T11:45:19.875Z,11.52
2023-01-15T11:48:13.004Z,11.47
2023-01-15T11:50:50.368Z,11.45
2023-01-15T11:53:21.859Z,11.42
2023-01-15T11:56:35.117Z,11.37
2023-01-15T11:59:09.357Z,11.29
2023-01-15T12:01:39.573Z,11.30
2023-01-15T12:04:31.283Z,11.34
2023-01-15T12:06:59.302Z,11.29
2023-01-15T12:09:50.607Z,11.34
2023-01-15T12:12:26.455Z,11.33
2023-01-15T12:14:59.191Z,11.33
2023-01-15T12:18:07.903Z,11.34
2023-01-15T12:20:43.677Z,11.39
2023-01-15T12:23:18.935Z,11.45
2023-01-15T12:25:58.142Z,11.51
2023-01-15T12:28:38.664Z,11.50
2023-01-15T12:31:13.164Z,11.51
2023-01-15T12:33:49.048Z,11.55
2023-01-15T12:36:24.324Z,11.49
2023-01-15T12:38:56.929Z,11.55
2023-01-15T12:42:05.277Z,11.58
2023-01-15T12:45:01.742Z,11.61
2023-01-15T12:47:57.008Z,11.65
2023-01-15T12:50:55.018Z,11.67
2023-01-15T12:54:01.841Z,11.71
2023-01-15T12:56:42.115Z,11.74
2023-01-15T12:59:19.611Z,11.76
2023-01-15T13:02:11.125Z,11.79
2023-01-15T13:04:52.129Z,11.81
2023-01-15T13:07:22.641Z,11.85
2023-01-15T13:10:07.907Z,11.86
2023-01-15T13:12:34.953Z,11.85
2023-01-15T13:15:03.585Z,11.87
2023-01-15T13:17:35.461Z,11.88
2023-01-15T13:20:11.152Z,11.87
2023-01-15T13:22:50.802Z,11.85
2023-01-15T13:25:29.960Z,11.85
2023-01-15T13:28:25.101Z,11.83
2023-01-15T13:31:25.008Z,11.79
2023-01-15T13:33:56.398Z,11.83
2023-01-15T13:36:35.607Z,11.83
2023-01-15T13:39:05.471Z,11.85
2023-01-15T13:41:53.300Z,11.85
2023-01-15T13:44:23.793Z,11.83
2023-01-15T13:46:59.836Z,11.83
2023-01-15T13:49:51.756Z,11.83
2023-01-15T13:52:35.587Z,11.82
2023-01-15T13:55:20.911Z,11.83
2023-01-15T13:57:49.062Z,11.83
2023-01-15T14:00:34.521Z,11.86
2023-01-15T14:03:04.333Z,11.89
2023-01-15T14:05:33.897Z,11.94
2023-01-15T14:08:03.112Z,11.93
2023-01-15T14:10:33.746Z,11.96
2023-01-15T14:13:30.086Z,11.94
2023-01-15T14:16:15.163Z,11.99
2023-01-15T14:18:45.115Z,11.98
2023-01-15T14:21:21.033Z,12.08
2023-01-15T14:24:02.873Z,11.99
2023-01-15T14:27:07.960Z,11.96
2023-01-15T14:29:34.800Z,11.92
2023-01-15T14:32:10.452Z,11.91
2023-01-15T14:34:38.113Z,11.98
2023-01-15T14:37:27.049Z,12.01
2023-01-15T14:39:58.905Z,11.95
2023-01-15T14:42:52.088Z,11.93
2023-01-15T14:45:28.437Z,11.81
2023-01-15T14:47:58.041Z,11.72
2023-01-15T14:50:42.436Z,11.63
2023-01-15T14:53:15.114Z,11.60
2023-01-15T14:56:17.446Z,11.57
2023-01-15T14:59:02.629Z,11.56
2023-01-15T15:01:36.537Z,11.54
2023-01-15T15:04:35.594Z,11.50
2023-01-15T15:07:07.957Z,11.49
2023-01-15T15:09:47.999Z,11.49
2023-01-15T15:12:20.445Z,11.50
2023-01-15T15:15:00.234Z,11.50
2023-01-15T15:17:55.573Z,11.49
2023-01-15T15:20:31.635Z,11.49
2023-01-15T15:23:09.071Z,11.47
2023-01-15T15:25:39.600Z,11.45
2023-01-15T15:28:10.598Z,11.42
2023-01-15T15:30:44.659Z,11.46
2023-01-15T15:33:18.652Z,11.51
2023-01-15T15:35:50.852Z,11.51
2023-01-15T15:38:19.795Z,11.50
2023-01-15T15:40:51.763Z,11.49
2023-01-15T15:44:11.307Z,11.51
2023-01-15T15:46:56.869Z,11.54
2023-01-15T15:49:23.779Z,11.53
2023-01-15T15:51:52.102Z,11.59
2023-01-15T15:54:23.904Z,11.60
2023-01-15T15:56:53.425Z,11.56
2023-01-15T15:59:30.886Z,11.58
2023-01-15T16:02:14.338Z,11.57
2023-01-15T16:04:53.181Z,11.55
2023-01-15T16:07:28.213Z,11.55
2023-01-15T16:09:59.903Z,11.53
2023-01-15T16:12:34.148Z,11.50
2023-01-15T16:15:02.094Z,11.50
2023-01-15T16:17:29.417Z,11.52
2023-01-15T16:19:57.599Z,11.53
2023-01-15T16:22:24.563Z,11.50
2023-01-15T16:24:56.560Z,11.51
2023-01-15T16:27:31.007Z,11.53
2023-01-15T16:29:58.400Z,11.47
2023-01-15T16:32:33.235Z,11.45
2023-01-15T16:35:22.782Z,11.47
2023-01-15T16:37:54.508Z,11.47
2023-01-15T16:40:32.365Z,11.50
2023-01-15T16:43:13.004Z,11.56
2023-01-15T16:46:07.404Z,11.57
2023-01-15T16:48:42.042Z,11.55
2023-01-15T16:51:27.539Z,11.54
2023-01-15T16:53:54.805Z,11.54
2023-01-15T16:56:34.860Z,11.52
2023-01-15T16:59:02.106Z,11.51
2023-01-15T17:01:44.432Z,11.53
2023-01-15T17:04:32.379Z,11.54
2023-01-15T17:07:24.909Z,11.54
2023-01-15T17:09:55.624Z,11.56
2023-01-15T17:12:31.817Z,11.55
2023-01-15T17:15:19.481Z,11.54
2023-01-15T17:17:47.531Z,11.58
2023-01-15T17:20:15.663Z,11.57
2023-01-15T17:22:47.899Z,11.57
2023-01-15T17:25:28.654Z,11.59
2023-01-15T17:27:56.090Z,11.61
2023-01-15T17:30:30.950Z,11.65
2023-01-15T17:32:59.188Z,11.70
2023-01-15T17:35:32.128Z,11.73
2023-01-15T17:37:59.544Z,11.73
2023-01-15T17:40:27.387Z,11.79
2023-01-15T17:42:54.344Z,11.82
2023-01-15T17:45:22.432Z,11.85
2023-01-15T17:47:50.075Z,11.85
2023-01-15T17:50:18.355Z,11.84
2023-01-15T17:52:48.031Z,11.87
2023-01-15T17:55:39.637Z,11.90
2023-01-15T17:58:25.307Z,11.91
2023-01-15T18:01:11.955Z,11.94
2023-01-15T18:04:05.772Z,12.04
2023-01-15T18:06:34.137Z,12.07
2023-01-15T18:09:04.438Z,12.08
2023-01-15T18:11:31.529Z,12.08
2023-01-15T18:13:58.243Z,12.05
2023-01-15T18:16:26.544Z,12.04
2023-01-15T18:18:56.345Z,12.04
2023-01-15T18:21:23.777Z,12.08
2023-01-15T18:23:50.793Z,12.12
2023-01-15T18:26:17.751Z,12.15
2023-01-15T18:28:46.537Z,12.15
2023-01-15T18:31:14.005Z,12.19
2023-01-15T18:33:40.794Z,12.21
2023-01-15T18:36:14.972Z,12.24
2023-01-15T18:38:43.925Z,12.24
2023-01-15T18:41:34.139Z,12.21
2023-01-15T18:44:20.798Z,12.27
2023-01-15T18:46:50.652Z,12.28
2023-01-15T18:49:17.652Z,12.40
2023-01-15T18:51:44.674Z,12.37
2023-01-15T18:54:12.966Z,12.40
2023-01-15T18:56:39.861Z,12.43
2023-01-15T18:59:11.516Z,12.44
2023-01-15T19:01:39.977Z,12.47
2023-01-15T19:04:08.751Z,12.45
2023-01-15T19:06:36.481Z,12.47
2023-01-15T19:09:04.540Z,12.46
2023-01-15T19:11:31.805Z,12.46
2023-01-15T19:14:17.344Z,12.46
2023-01-15T19:17:03.099Z,12.48
2023-01-15T19:19:30.219Z,12.42
2023-01-15T19:22:15.803Z,12.39
2023-01-15T19:24:42.748Z,12.31
2023-01-15T19:27:10.055Z,12.31
2023-01-15T19:29:37.107Z,12.33
2023-01-15T19:32:04.831Z,12.39
2023-01-15T19:34:34.289Z,12.39
2023-01-15T19:37:01.609Z,12.26
2023-01-15T19:39:29.920Z,12.25
2023-01-15T19:42:17.051Z,12.18
2023-01-15T19:45:02.675Z,12.19
2023-01-15T19:47:57.469Z,12.21
2023-01-15T19:50:42.076Z,12.24
2023-01-15T19:53:10.349Z,12.25
2023-01-15T19:55:40.167Z,12.25
2023-01-15T19:58:10.166Z,12.17
2023-01-15T20:00:39.584Z,12.19
2023-01-15T20:03:10.103Z,12.16
2023-01-15T20:05:38.425Z,12.20
2023-01-15T20:08:05.458Z,12.18
2023-01-15T20:10:34.447Z,12.14
2023-01-15T20:13:20.937Z,12.08
2023-01-15T20:15:48.041Z,12.10
2023-01-15T20:18:15.375Z,12.18
2023-01-15T20:20:45.184Z,12.27
2023-01-15T20:23:12.281Z,12.23
2023-01-15T20:25:39.203Z,12.22
2023-01-15T20:28:06.309Z,12.21
2023-01-15T20:30:33.448Z,12.27
2023-01-15T20:33:00.727Z,12.36
2023-01-15T20:35:31.639Z,12.35
2023-01-15T20:37:59.481Z,12.36
2023-01-15T20:40:28.001Z,12.36
2023-01-15T20:43:14.286Z,12.30
2023-01-15T20:45:42.052Z,12.29
2023-01-15T20:48:12.133Z,12.29
2023-01-15T20:51:02.817Z,12.31
2023-01-15T20:53:33.897Z,12.20
2023-01-15T20:56:11.004Z,12.20
2023-01-15T20:58:38.139Z,12.22
2023-01-15T21:01:08.951Z,12.21
2023-01-15T21:03:36.553Z,12.19
2023-01-15T21:06:05.205Z,12.22
2023-01-15T21:08:33.876Z,12.22
2023-01-15T21:11:01.061Z,12.33
2023-01-15T21:13:32.940Z,12.37
2023-01-15T21:16:06.431Z,12.29
2023-01-15T21:18:35.835Z,12.27
2023-01-15T21:21:23.871Z,12.20
2023-01-15T21:23:51.168Z,12.41
2023-01-15T21:26:18.777Z,12.46
2023-01-15T21:28:47.397Z,12.38
2023-01-15T21:31:14.924Z,12.40
2023-01-15T21:33:42.136Z,12.42
2023-01-15T21:36:11.284Z,12.37
2023-01-15T21:38:38.320Z,12.33
2023-01-15T21:41:13.628Z,12.25
2023-01-15T21:44:00.313Z,12.29
2023-01-15T21:46:28.374Z,12.26
2023-01-15T21:48:59.164Z,12.25
2023-01-15T21:51:26.944Z,12.24
2023-01-15T21:53:54.565Z,12.24
2023-01-15T21:56:22.074Z,12.28
2023-01-15T21:58:49.105Z,12.22
2023-01-15T22:01:18.337Z,12.20
2023-01-15T22:03:46.049Z,12.21
2023-01-15T22:06:13.026Z,12.23
2023-01-15T22:08:40.162Z,12.19
2023-01-15T22:11:10.093Z,12.19
2023-01-15T22:13:40.462Z,12.16
2023-01-15T22:16:09.255Z,12.15
2023-01-15T22:18:36.267Z,12.12
2023-01-15T22:21:07.638Z,12.11
2023-01-15T22:23:35.191Z,12.08
2023-01-15T22:26:03.600Z,12.08
2023-01-15T22:28:30.726Z,12.08
2023-01-15T22:30:57.844Z,12.08
2023-01-15T22:33:24.822Z,12.07
2023-01-15T22:35:59.945Z,12.10
2023-01-15T22:38:27.491Z,12.07
2023-01-15T22:40:58.247Z,12.11
2023-01-15T22:43:25.139Z,12.09
2023-01-15T22:45:52.174Z,12.11
2023-01-15T22:48:19.192Z,12.09
2023-01-15T22:50:46.098Z,12.13
2023-01-15T22:53:16.299Z,12.12
2023-01-15T22:55:47.387Z,12.09
2023-01-15T22:58:14.703Z,12.13
2023-01-15T23:00:41.613Z,12.12
2023-01-15T23:03:11.519Z,12.01
2023-01-15T23:05:39.383Z,12.05
2023-01-15T23:08:07.185Z,12.09
2023-01-15T23:10:34.012Z,12.06
2023-01-15T23:13:02.825Z,12.03
2023-01-15T23:15:39.793Z,12.02
2023-01-15T23:18:09.951Z,12.01
2023-01-15T23:20:39.081Z,11.98
2023-01-15T23:23:12.063Z,11.98
2023-01-15T23:25:41.631Z,11.98
2023-01-15T23:28:11.011Z,11.95
2023-01-15T23:30:37.739Z,11.97
2023-01-15T23:33:05.590Z,11.95
2023-01-15T23:35:32.481Z,11.95
2023-01-15T23:37:59.174Z,11.91
2023-01-15T23:40:28.163Z,11.93
2023-01-15T23:43:13.274Z,11.90
2023-01-15T23:45:58.890Z,11.87
2023-01-15T23:48:27.783Z,11.87
2023-01-15T23:50:54.476Z,11.88
2023-01-15T23:53:21.343Z,11.95
2023-01-15T23:55:48.190Z,11.87
2023-01-15T23:58:14.896Z,11.83
